Time;durP1;ratioP1;P1;durP2;ratioP2;P2;SDS_P1;SDS_P2;PMS_P1;PMS_P2;Temp;Humidity;BMP_temperature;BMP_pressure;BME280_temperature;BME280_humidity;BME280_pressure;Samples;Min_cycle;Max_cycle;Signal;HPM_P1;HPM_P2
2023/12/29 00:00:05;;;;;;;1.70;1.60;;;;;;;15.74;55.70;97928.23;105608;1256;65860;-37
2023/12/29 00:02:32;;;;;;;2.00;1.60;;;;;;;15.75;55.65;97927.73;105741;1253;71704;-37
2023/12/29 00:04:59;;;;;;;2.80;1.70;;;;;;;15.75;55.69;97927.52;105688;1255;61171;-36
2023/12/29 00:07:26;;;;;;;1.70;1.60;;;;;;;15.75;55.67;97928.77;105776;1253;61258;-37
2023/12/29 00:09:54;;;;;;;1.70;1.50;;;;;;;15.75;55.62;97927.68;105674;1256;74591;-37
2023/12/29 00:12:21;;;;;;;2.50;1.90;;;;;;;15.75;55.73;97921.13;105718;1256;66056;-36
2023/12/29 00:14:48;;;;;;;1.80;1.50;;;;;;;15.76;55.64;97913.49;105704;1253;72441;-37
2023/12/29 00:17:16;;;;;;;2.40;1.90;;;;;;;15.76;55.67;97919.81;105668;1256;61240;-36
2023/12/29 00:19:44;;;;;;;1.60;1.50;;;;;;;15.75;55.64;97921.89;105591;1253;61221;-37
2023/12/29 00:22:11;;;;;;;1.90;1.70;;;;;;;15.76;55.57;97920.44;105702;1253;74579;-36
2023/12/29 00:24:39;;;;;;;3.60;1.50;;;;;;;15.76;55.60;97920.52;105770;1256;65787;-37
2023/12/29 00:27:07;;;;;;;2.20;1.70;;;;;;;15.76;55.66;97925.15;105949;1253;72633;-36
2023/12/29 00:29:34;;;;;;;1.90;1.70;;;;;;;15.76;55.63;97919.30;105845;1256;61254;-36
2023/12/29 00:32:02;;;;;;;1.70;1.60;;;;;;;15.76;55.69;97920.77;105991;1253;61247;-37
2023/12/29 00:34:31;;;;;;;2.00;1.70;;;;;;;15.76;55.59;97917.44;105950;1255;74362;-36
2023/12/29 00:37:00;;;;;;;2.00;1.70;;;;;;;15.76;55.63;97909.27;105916;1253;65112;-36
2023/12/29 00:39:30;;;;;;;2.30;1.80;;;;;;;15.76;55.66;97906.95;105859;1255;72325;-37
2023/12/29 00:41:59;;;;;;;1.90;1.60;;;;;;;15.76;55.64;97909.87;105873;1253;61277;-36
2023/12/29 00:44:26;;;;;;;1.70;1.60;;;;;;;15.77;55.71;97915.67;105680;1252;61647;-36
2023/12/29 00:46:53;;;;;;;2.00;1.70;;;;;;;15.77;55.59;97912.45;105817;1253;73622;-36
2023/12/29 00:49:20;;;;;;;1.70;1.60;;;;;;;15.76;55.68;97910.88;105945;1256;65943;-36
2023/12/29 00:51:48;;;;;;;3.20;1.90;;;;;;;15.77;55.63;97913.24;105970;1251;73119;-36
2023/12/29 00:54:16;;;;;;;2.10;1.70;;;;;;;15.77;55.65;97916.64;105893;1256;61349;-37
2023/12/29 00:56:50;;;;;;;1.80;1.50;;;;;;;15.77;55.58;97916.70;105877;1254;61291;-36
2023/12/29 00:59:18;;;;;;;2.20;1.70;;;;;;;15.77;55.66;97919.27;105934;1251;74656;-37
2023/12/29 01:01:46;;;;;;;1.60;1.50;;;;;;;15.78;55.66;97914.41;105795;1256;65021;-36
2023/12/29 01:04:13;;;;;;;2.00;1.70;;;;;;;15.77;55.61;97919.66;105839;1254;72655;-36
2023/12/29 01:06:41;;;;;;;1.60;1.50;;;;;;;15.77;55.62;97917.50;105937;1256;61689;-36
2023/12/29 01:09:10;;;;;;;2.00;1.60;;;;;;;15.77;55.68;97919.50;105767;1251;61333;-36
2023/12/29 01:11:37;;;;;;;2.50;1.40;;;;;;;15.78;55.57;97912.02;105696;1251;73128;-37
2023/12/29 01:14:05;;;;;;;1.60;1.50;;;;;;;15.77;55.57;97904.38;105558;1256;66048;-36
2023/12/29 01:16:33;;;;;;;2.10;1.70;;;;;;;15.77;55.52;97901.13;105934;1253;72391;-37
2023/12/29 01:19:00;;;;;;;2.60;1.60;;;;;;;15.77;55.60;97901.30;105876;1256;61320;-37
2023/12/29 01:21:28;;;;;;;2.10;1.50;;;;;;;15.78;55.55;97895.14;105959;1251;61256;-36
2023/12/29 01:23:56;;;;;;;1.80;1.60;;;;;;;15.77;55.56;97894.28;105772;1254;74575;-37
2023/12/29 01:26:23;;;;;;;1.70;1.60;;;;;;;15.78;55.52;97891.89;105570;1253;66289;-37
2023/12/29 01:28:50;;;;;;;1.70;1.50;;;;;;;15.78;55.51;97893.52;105549;1253;72501;-36
2023/12/29 01:31:17;;;;;;;1.30;1.20;;;;;;;15.78;55.52;97890.96;105745;1256;61256;-37
2023/12/29 01:33:45;;;;;;;1.90;1.60;;;;;;;15.78;55.58;97892.36;105853;1253;61241;-36
2023/12/29 01:36:19;;;;;;;1.80;1.70;;;;;;;15.77;55.63;97890.81;105868;1251;74553;-36
2023/12/29 01:38:51;;;;;;;2.10;1.50;;;;;;;15.78;55.58;97887.03;105919;1256;65527;-37
2023/12/29 01:41:22;;;;;;;1.80;1.50;;;;;;;15.78;55.54;97884.71;105851;1253;72590;-37
2023/12/29 01:43:59;;;;;;;1.70;1.60;;;;;;;15.78;55.63;97879.63;105867;1257;61252;-36
2023/12/29 01:46:30;;;;;;;2.10;1.80;;;;;;;15.77;55.61;97878.77;105845;1253;61309;-37
2023/12/29 01:48:58;;;;;;;1.70;1.50;;;;;;;15.78;55.51;97882.03;105906;1253;74603;-37
2023/12/29 01:51:27;;;;;;;2.00;1.60;;;;;;;15.78;55.57;97882.03;105865;1257;67087;-37
2023/12/29 01:53:55;;;;;;;1.90;1.60;;;;;;;15.78;55.53;97881.17;105868;1253;72605;-37
2023/12/29 01:56:22;;;;;;;1.80;1.50;;;;;;;15.78;55.53;97879.70;105795;1253;61271;-37
2023/12/29 01:58:50;;;;;;;1.60;1.50;;;;;;;15.78;55.52;97876.94;105743;1253;61247;-37
2023/12/29 02:01:18;;;;;;;1.60;1.50;;;;;;;15.78;55.57;97876.48;105730;1259;74411;-37
2023/12/29 02:03:45;;;;;;;1.60;1.50;;;;;;;15.78;55.47;97871.92;105731;1254;66388;-37
2023/12/29 02:06:13;;;;;;;2.00;1.80;;;;;;;15.78;55.53;97871.92;105614;1254;72587;-36
2023/12/29 02:08:40;;;;;;;1.50;1.40;;;;;;;15.78;55.54;97872.46;105671;1256;61224;-36
2023/12/29 02:11:09;;;;;;;1.60;1.50;;;;;;;15.79;55.51;97875.64;105658;1254;61362;-36
2023/12/29 02:13:36;;;;;;;1.70;1.60;;;;;;;15.79;55.59;97874.17;105882;1256;74439;-36
2023/12/29 02:16:09;;;;;;;2.10;1.60;;;;;;;15.79;55.52;97876.17;105880;1256;66085;-37
2023/12/29 02:18:36;;;;;;;1.60;1.50;;;;;;;15.79;55.54;97877.77;105485;1252;72675;-37
2023/12/29 02:21:04;;;;;;;1.80;1.50;;;;;;;15.79;55.53;97872.73;105589;1259;61202;-37
2023/12/29 02:23:31;;;;;;;1.70;1.60;;;;;;;15.79;55.55;97870.27;105716;1251;61308;-36
2023/12/29 02:26:02;;;;;;;1.40;1.30;;;;;;;15.79;55.67;97866.55;105818;1251;74569;-37
2023/12/29 02:28:29;;;;;;;1.80;1.60;;;;;;;15.79;55.59;97860.77;105957;1251;65882;-36
2023/12/29 02:31:01;;;;;;;2.10;1.60;;;;;;;15.79;55.52;97854.92;105576;1258;72694;-37
2023/12/29 02:33:29;;;;;;;2.20;1.50;;;;;;;15.79;55.59;97851.44;105683;1257;61154;-37
2023/12/29 02:35:57;;;;;;;2.10;1.50;;;;;;;15.80;55.46;97846.61;105593;1251;61250;-37
2023/12/29 02:38:27;;;;;;;2.10;1.60;;;;;;;15.79;55.58;97846.29;105564;1251;74407;-36
2023/12/29 02:40:56;;;;;;;2.30;1.50;;;;;;;15.80;55.46;97842.61;105831;1257;66087;-37
2023/12/29 02:43:23;;;;;;;1.90;1.40;;;;;;;15.80;55.53;97841.53;105767;1251;72635;-37
2023/12/29 02:45:50;;;;;;;1.60;1.50;;;;;;;15.80;55.52;97837.27;105804;1254;61266;-37
2023/12/29 02:48:18;;;;;;;1.30;1.20;;;;;;;15.80;55.53;97838.83;105933;1254;61641;-37
2023/12/29 02:50:46;;;;;;;2.00;1.70;;;;;;;15.80;55.36;97833.80;105902;1255;75028;-37
2023/12/29 02:53:13;;;;;;;1.70;1.50;;;;;;;15.80;55.47;97830.59;105939;1256;65524;-37
2023/12/29 02:55:41;;;;;;;1.40;1.20;;;;;;;15.80;55.41;97829.11;105619;1254;72302;-37
2023/12/29 02:58:09;;;;;;;1.40;1.30;;;;;;;15.80;55.48;97826.34;105542;1254;61294;-36
2023/12/29 03:00:36;;;;;;;3.10;1.30;;;;;;;15.80;55.51;97823.64;106288;1254;61318;-36
2023/12/29 03:03:04;;;;;;;1.30;1.20;;;;;;;15.81;55.49;97826.83;105789;1253;74958;-36
2023/12/29 03:05:31;;;;;;;1.60;1.50;;;;;;;15.81;55.40;97832.30;106088;1257;65462;-36
2023/12/29 03:07:59;;;;;;;1.70;1.50;;;;;;;15.80;55.46;97823.41;105499;1253;71346;-36
2023/12/29 03:10:26;;;;;;;1.60;1.50;;;;;;;15.80;55.47;97829.36;105791;1259;61169;-36
2023/12/29 03:12:54;;;;;;;2.00;1.80;;;;;;;15.80;55.41;97826.27;105682;1253;61333;-36
2023/12/29 03:15:21;;;;;;;1.70;1.60;;;;;;;15.82;55.59;97830.17;105552;1257;74581;-37
2023/12/29 03:17:48;;;;;;;1.50;1.40;;;;;;;15.81;55.42;97825.59;105883;1258;64663;-36
2023/12/29 03:20:16;;;;;;;1.60;1.50;;;;;;;15.81;55.40;97828.98;105748;1253;72096;-36
2023/12/29 03:22:43;;;;;;;1.40;1.30;;;;;;;15.81;55.49;97825.36;105692;1256;61244;-36
2023/12/29 03:25:12;;;;;;;1.60;1.50;;;;;;;15.82;55.40;97827.09;105577;1253;61353;-38
2023/12/29 03:27:39;;;;;;;1.90;1.60;;;;;;;15.81;55.46;97825.52;105560;1256;74802;-38
2023/12/29 03:30:07;;;;;;;1.80;1.40;;;;;;;15.82;55.48;97821.68;105617;1258;65083;-38
2023/12/29 03:32:35;;;;;;;1.70;1.60;;;;;;;15.82;55.44;97819.39;105931;1256;72462;-37
2023/12/29 03:35:04;;;;;;;1.70;1.60;;;;;;;15.82;55.37;97819.08;105815;1256;61253;-36
2023/12/29 03:37:31;;;;;;;2.00;1.50;;;;;;;15.82;55.44;97818.23;105804;1253;61288;-37
2023/12/29 03:39:58;;;;;;;1.80;1.60;;;;;;;15.82;55.44;97818.15;105532;1253;74658;-37
2023/12/29 03:42:26;;;;;;;1.40;1.30;;;;;;;15.82;55.32;97821.40;105591;1256;65938;-37
2023/12/29 03:44:53;;;;;;;1.50;1.30;;;;;;;15.82;55.37;97820.63;105663;1253;72580;-37
2023/12/29 03:47:21;;;;;;;1.20;1.10;;;;;;;15.82;55.48;97826.73;105665;1256;61234;-37
2023/12/29 03:49:49;;;;;;;2.70;1.50;;;;;;;15.82;55.40;97824.64;105580;1253;61244;-36
2023/12/29 03:52:16;;;;;;;1.70;1.40;;;;;;;15.82;55.41;97822.00;105897;1253;75153;-38
2023/12/29 03:54:44;;;;;;;1.60;1.50;;;;;;;15.82;55.40;97821.71;105894;1256;64744;-36
2023/12/29 03:57:12;;;;;;;1.50;1.40;;;;;;;15.82;55.39;97818.16;105851;1254;72560;-36
2023/12/29 03:59:40;;;;;;;1.60;1.50;;;;;;;15.83;55.46;97814.23;105576;1256;61177;-36
2023/12/29 04:02:07;;;;;;;1.40;1.30;;;;;;;15.83;55.46;97811.48;105692;1253;61248;-37
2023/12/29 04:04:37;;;;;;;1.90;1.30;;;;;;;15.83;55.43;97811.38;105622;1253;74610;-37
2023/12/29 04:07:06;;;;;;;1.40;1.30;;;;;;;15.82;55.44;97811.61;105724;1257;65447;-37
2023/12/29 04:09:33;;;;;;;1.30;1.20;;;;;;;15.82;55.45;97813.99;105916;1253;72919;-36
2023/12/29 04:12:00;;;;;;;1.40;1.20;;;;;;;15.82;55.42;97816.85;105813;1259;61308;-37
2023/12/29 04:14:28;;;;;;;1.80;1.30;;;;;;;15.82;55.40;97820.80;105855;1253;61224;-36
2023/12/29 04:16:55;;;;;;;1.60;1.40;;;;;;;15.83;55.37;97822.95;105832;1256;74870;-37
2023/12/29 04:19:22;;;;;;;1.80;1.50;;;;;;;15.82;55.41;97819.95;105783;1256;66212;-36
2023/12/29 04:21:50;;;;;;;1.80;1.30;;;;;;;15.83;55.35;97820.57;105889;1256;72657;-37
2023/12/29 04:24:17;;;;;;;1.80;1.60;;;;;;;15.83;55.43;97819.04;105869;1256;61221;-37
2023/12/29 04:26:44;;;;;;;2.50;1.50;;;;;;;15.83;55.39;97815.48;105834;1253;61692;-36
2023/12/29 04:29:12;;;;;;;1.60;1.40;;;;;;;15.83;55.38;97814.09;105528;1256;73501;-36
2023/12/29 04:31:39;;;;;;;1.50;1.40;;;;;;;15.83;55.38;97812.40;105501;1256;66023;-36
2023/12/29 04:34:07;;;;;;;1.60;1.50;;;;;;;15.83;55.43;97816.17;105679;1253;73432;-37
2023/12/29 04:36:34;;;;;;;1.30;1.20;;;;;;;15.84;55.43;97819.30;105939;1256;61161;-36
2023/12/29 04:39:02;;;;;;;1.40;1.30;;;;;;;15.83;55.43;97821.04;105905;1253;61237;-36
2023/12/29 04:41:29;;;;;;;2.80;1.70;;;;;;;15.83;55.31;97829.07;105850;1254;74375;-36
2023/12/29 04:43:57;;;;;;;1.40;1.30;;;;;;;15.83;55.48;97822.83;105502;1256;66118;-37
2023/12/29 04:46:24;;;;;;;1.30;1.20;;;;;;;15.83;55.35;97829.98;105572;1253;73001;-37
2023/12/29 04:48:51;;;;;;;2.10;1.40;;;;;;;15.83;55.28;97823.58;105464;1253;61196;-37
2023/12/29 04:51:20;;;;;;;1.70;1.50;;;;;;;15.83;55.37;97825.98;105547;1254;61263;-37
2023/12/29 04:53:47;;;;;;;2.00;1.30;;;;;;;15.83;55.39;97823.35;105608;1256;74575;-36
2023/12/29 04:56:15;;;;;;;1.50;1.30;;;;;;;15.83;55.42;97826.54;105872;1256;65614;-36
2023/12/29 04:58:42;;;;;;;1.50;1.40;;;;;;;15.83;55.41;97830.15;105898;1253;72937;-36
2023/12/29 05:01:09;;;;;;;1.70;1.50;;;;;;;15.83;55.43;97824.60;105911;1256;61206;-37
2023/12/29 05:03:37;;;;;;;1.50;1.20;;;;;;;15.83;55.46;97826.52;105788;1253;61192;-36
2023/12/29 05:06:04;;;;;;;1.30;1.20;;;;;;;15.83;55.37;97821.66;105629;1255;74397;-36
2023/12/29 05:08:31;;;;;;;1.40;1.30;;;;;;;15.83;55.35;97822.42;105634;1256;64858;-37
2023/12/29 05:10:59;;;;;;;1.30;1.20;;;;;;;15.84;55.37;97823.01;105696;1255;71512;-38
2023/12/29 05:13:26;;;;;;;1.90;1.50;;;;;;;15.84;55.41;97818.63;105842;1256;61238;-36
2023/12/29 05:15:54;;;;;;;1.80;1.50;;;;;;;15.83;55.45;97817.20;105958;1254;61373;-36
2023/12/29 05:18:21;;;;;;;1.50;1.30;;;;;;;15.84;55.26;97816.75;105666;1255;73344;-36
2023/12/29 05:20:48;;;;;;;1.80;1.40;;;;;;;15.84;55.35;97817.44;105786;1256;65954;-37
2023/12/29 05:23:16;;;;;;;1.40;1.30;;;;;;;15.84;55.40;97813.60;105622;1253;72589;-37
2023/12/29 05:25:43;;;;;;;1.40;1.30;;;;;;;15.84;55.30;97807.71;105578;1256;61221;-37
2023/12/29 05:28:10;;;;;;;1.50;1.40;;;;;;;15.84;55.36;97809.43;105610;1253;61360;-38
2023/12/29 05:30:38;;;;;;;1.60;1.30;;;;;;;15.84;55.30;97809.19;106194;1255;74447;-36
2023/12/29 05:33:05;;;;;;;1.60;1.30;;;;;;;15.84;55.33;97810.84;105727;1256;65145;-36
2023/12/29 05:35:32;;;;;;;1.90;1.40;;;;;;;15.85;55.29;97805.74;106125;1253;72704;-37
2023/12/29 05:38:00;;;;;;;1.40;1.30;;;;;;;15.85;55.32;97810.15;105854;1256;61282;-36
2023/12/29 05:40:29;;;;;;;1.60;1.50;;;;;;;15.85;55.28;97808.70;105916;1253;61247;-37
2023/12/29 05:42:56;;;;;;;1.60;1.50;;;;;;;15.85;55.33;97806.69;105704;1255;74315;-38
2023/12/29 05:45:24;;;;;;;1.40;1.30;;;;;;;15.85;55.36;97805.77;105590;1256;66125;-37
2023/12/29 05:47:51;;;;;;;1.50;1.40;;;;;;;15.85;55.25;97808.39;105553;1256;72613;-37
2023/12/29 05:50:18;;;;;;;1.50;1.40;;;;;;;15.86;55.28;97804.08;105562;1256;61229;-36
2023/12/29 05:52:51;;;;;;;1.90;1.60;;;;;;;15.85;55.40;97803.07;105593;1254;61356;-35
2023/12/29 05:55:19;;;;;;;1.60;1.40;;;;;;;15.86;55.29;97800.68;105611;1253;73149;-36
2023/12/29 05:57:46;;;;;;;1.40;1.30;;;;;;;15.86;55.33;97801.38;105680;1256;66105;-35
2023/12/29 06:00:14;;;;;;;1.40;1.10;;;;;;;15.85;55.31;97801.05;105611;1253;71501;-37
2023/12/29 06:02:42;;;;;;;1.50;1.40;;;;;;;15.86;55.33;97798.45;105651;1256;61236;-36
2023/12/29 06:05:10;;;;;;;1.40;1.10;;;;;;;15.85;55.24;97794.36;105648;1256;61225;-36
2023/12/29 06:07:38;;;;;;;1.80;1.50;;;;;;;15.85;55.35;97794.73;105637;1256;74520;-36
2023/12/29 06:10:06;;;;;;;1.60;1.40;;;;;;;15.86;55.26;97794.83;105653;1256;66267;-36
2023/12/29 06:12:34;;;;;;;1.30;1.20;;;;;;;15.86;55.27;97793.54;105735;1255;72523;-37
2023/12/29 06:15:02;;;;;;;1.50;1.40;;;;;;;15.86;55.34;97791.20;105684;1256;61241;-35
2023/12/29 06:17:29;;;;;;;1.90;1.30;;;;;;;15.86;55.27;97790.45;105928;1256;62284;-38
2023/12/29 06:19:57;;;;;;;1.70;1.40;;;;;;;15.86;55.32;97792.45;105645;1256;74331;-38
2023/12/29 06:22:26;;;;;;;1.30;1.10;;;;;;;15.86;55.29;97790.14;105795;1256;65037;-38
2023/12/29 06:24:54;;;;;;;1.40;1.30;;;;;;;15.86;55.20;97790.14;105724;1255;71332;-36
2023/12/29 06:27:21;;;;;;;1.50;1.40;;;;;;;15.86;55.23;97794.08;105803;1255;61335;-37
2023/12/29 06:29:48;;;;;;;1.70;1.50;;;;;;;15.86;55.34;97794.01;105632;1256;61232;-37
2023/12/29 06:32:15;;;;;;;1.50;1.30;;;;;;;15.87;55.27;97794.17;105631;1257;75509;-36
2023/12/29 06:34:43;;;;;;;1.30;1.20;;;;;;;15.86;55.22;97795.78;105612;1256;65713;-36
2023/12/29 06:37:10;;;;;;;1.20;1.10;;;;;;;15.86;55.33;97798.88;105600;1256;72597;-36
2023/12/29 06:39:39;;;;;;;1.30;1.10;;;;;;;15.86;55.27;97798.55;105674;1255;61221;-37
2023/12/29 06:42:07;;;;;;;2.20;1.40;;;;;;;15.87;55.24;97801.06;105628;1253;61343;-36
2023/12/29 06:44:34;;;;;;;1.50;1.40;;;;;;;15.87;55.30;97800.42;105553;1251;74583;-35
2023/12/29 06:47:04;;;;;;;1.60;1.40;;;;;;;15.86;55.21;97808.28;105758;1257;65346;-35
2023/12/29 06:49:35;;;;;;;1.60;1.40;;;;;;;15.86;55.21;97803.96;105945;1254;71877;-38
2023/12/29 06:52:03;;;;;;;1.40;1.30;;;;;;;15.86;55.28;97805.58;105816;1255;61260;-36
2023/12/29 06:54:31;;;;;;;1.30;1.20;;;;;;;15.86;55.30;97807.48;105661;1255;61180;-38
2023/12/29 06:56:58;;;;;;;1.50;1.20;;;;;;;15.85;55.28;97809.39;105699;1256;74610;-36
2023/12/29 06:59:26;;;;;;;1.60;1.00;;;;;;;15.86;55.27;97811.48;105843;1256;66197;-36
2023/12/29 07:01:53;;;;;;;1.10;1.00;;;;;;;15.85;55.23;97817.80;105672;1256;72379;-37
2023/12/29 07:04:21;;;;;;;1.30;1.10;;;;;;;15.85;55.27;97821.65;105723;1257;61225;-36
2023/12/29 07:06:49;;;;;;;1.20;1.10;;;;;;;15.85;55.29;97821.11;105877;1256;61143;-37
2023/12/29 07:09:16;;;;;;;1.40;1.30;;;;;;;15.85;55.18;97820.27;105801;1252;74610;-36
2023/12/29 07:11:48;;;;;;;1.40;1.30;;;;;;;15.85;55.29;97822.96;105583;1256;176355;-36
2023/12/29 07:14:17;;;;;;;1.40;1.30;;;;;;;15.85;55.23;97824.27;105531;1256;71265;-36
2023/12/29 07:16:44;;;;;;;1.30;1.20;;;;;;;15.85;55.27;97824.81;105633;1256;61157;-38
2023/12/29 07:19:11;;;;;;;2.00;1.20;;;;;;;15.85;55.20;97825.58;105541;1254;61353;-38
2023/12/29 07:21:39;;;;;;;3.40;1.40;;;;;;;15.84;55.39;97829.64;105641;1256;73089;-37
2023/12/29 07:24:07;;;;;;;1.40;1.30;;;;;;;15.84;55.45;97832.34;105819;1257;66399;-38
2023/12/29 07:26:35;;;;;;;2.50;1.50;;;;;;;15.84;55.46;97823.70;105754;1257;72669;-37
2023/12/29 07:29:05;;;;;;;1.70;1.50;;;;;;;15.84;55.52;97822.77;105565;1257;61333;-37
2023/12/29 07:31:33;;;;;;;2.40;1.50;;;;;;;15.84;55.57;97823.54;105583;1256;61324;-37
2023/12/29 07:34:00;;;;;;;2.90;1.70;;;;;;;15.84;55.59;97821.15;105861;1254;74573;-37
2023/12/29 07:36:28;;;;;;;1.90;1.40;;;;;;;15.84;55.63;97820.08;105763;1256;65646;-37
2023/12/29 07:38:55;;;;;;;2.10;1.70;;;;;;;15.85;55.70;97821.11;106022;1254;72923;-37
2023/12/29 07:41:23;;;;;;;2.70;1.50;;;;;;;15.85;55.75;97822.73;105897;1258;61241;-37
2023/12/29 07:43:50;;;;;;;2.30;1.60;;;;;;;15.86;55.81;97816.88;105823;1256;61279;-37
2023/12/29 07:46:27;;;;;;;2.70;1.80;;;;;;;15.85;55.79;97816.25;105616;1255;75112;-37
2023/12/29 07:48:54;;;;;;;2.50;1.80;;;;;;;15.86;55.81;97820.38;105658;1265;66248;-37
2023/12/29 07:51:22;;;;;;;1.90;1.70;;;;;;;15.86;55.86;97812.91;105718;1256;72669;-38
2023/12/29 07:53:49;;;;;;;2.10;1.80;;;;;;;15.87;55.81;97812.64;105562;1257;61176;-37
2023/12/29 07:56:16;;;;;;;2.10;1.60;;;;;;;15.87;55.82;97820.98;105455;1257;61167;-37
2023/12/29 07:58:44;;;;;;;2.00;1.50;;;;;;;15.88;55.82;97819.70;105567;1254;74539;-37
2023/12/29 08:01:13;;;;;;;3.20;1.90;;;;;;;15.90;55.92;97821.77;105590;1256;66239;-39
2023/12/29 08:03:41;;;;;;;2.10;1.70;;;;;;;15.90;55.86;97823.47;105686;1254;73009;-37
2023/12/29 08:06:08;;;;;;;2.20;1.60;;;;;;;15.91;55.93;97824.67;105682;1257;61242;-37
2023/12/29 08:08:36;;;;;;;1.60;1.50;;;;;;;15.92;55.96;97818.14;105752;1257;61222;-37
2023/12/29 08:11:03;;;;;;;2.00;1.60;;;;;;;15.93;55.97;97818.27;105794;1257;73436;-37
2023/12/29 08:13:30;;;;;;;2.50;1.50;;;;;;;15.95;55.93;97826.27;105540;1266;66640;-37
2023/12/29 08:15:58;;;;;;;1.90;1.70;;;;;;;15.95;55.97;97826.23;105830;1256;72451;-37
2023/12/29 08:29:42;;;;;;;1.90;1.60;;;;;;;15.99;55.96;97831.98;105517;1255;75995;-36
2023/12/29 08:32:09;;;;;;;3.50;1.70;;;;;;;15.99;55.83;97833.98;105550;1266;66285;-36
2023/12/29 08:34:37;;;;;;;3.00;1.60;;;;;;;16.00;55.83;97833.66;105637;1256;72628;-34
2023/12/29 08:37:05;;;;;;;1.60;1.50;;;;;;;16.01;55.80;97834.86;105738;1257;61235;-31
